Wakefield, Louisiana
Current Conditions -  °F | °C
As of 2:55 PM on Tuesday 21 Oct 2014 (Local Time) from KHZR Reporting Station
Clear Clear  
Wind Chill: 79°   Ceiling: Unl
Heat Index: 80°   Visibility: 10mi
Dew Point: 56°   Wind: 8mph
Humidity: 45%   Direction: 350°N
Pressure: 30"   Gusts: NA
Location:  30.89°N, 91.35°W
Report Text: KHZR 211955Z AUTO 35007KT 10SM CLR 26/13 A3000 RMK AO2 T02630134
Loading
Personal Weather Stations






























Interactive Weather Map
Tropical Storm Tracking
New forecast layout! Learn more

10-Day Weather Forecast

Advertisements
Track Severe Weather on mobile